Time;durP1;ratioP1;P1;durP2;ratioP2;P2;SDS_P1;SDS_P2;PMS_P1;PMS_P2;Temp;Humidity;BMP_temperature;BMP_pressure;BME280_temperature;BME280_humidity;BME280_pressure;Samples;Min_cycle;Max_cycle;Signal;HPM_P1;HPM_P2
2021/03/22 00:01:24;;;;;;;2.40;2.30;;;;;;;-0.45;100.00;93166.76;835320;71;33388;-79
2021/03/22 00:16:18;;;;;;;3.00;2.80;;;;;;;-0.29;100.00;93171.46;794341;74;32959;-86
2021/03/22 00:31:15;;;;;;;2.60;2.50;;;;;;;-0.26;100.00;93149.06;828113;71;32603;-82
2021/03/22 00:46:15;;;;;;;2.83;2.50;;;;;;;-0.17;100.00;93166.09;827768;71;33306;-83
2021/03/22 01:16:23;;;;;;;2.60;2.40;;;;;;;-0.21;100.00;93118.66;834386;71;32759;-81
2021/03/22 01:31:12;;;;;;;2.92;2.65;;;;;;;-0.29;100.00;93096.73;829970;69;32265;-82
2021/03/22 02:01:48;;;;;;;2.30;2.20;;;;;;;-0.08;100.00;93069.20;817619;72;32758;-80
2021/03/22 02:16:31;;;;;;;1.70;1.70;;;;;;;-0.05;100.00;93071.25;834324;71;31404;-81
2021/03/22 02:46:13;;;;;;;2.00;1.90;;;;;;;-0.08;100.00;93047.78;834143;71;32998;-84
2021/03/22 03:01:51;;;;;;;1.95;1.85;;;;;;;-0.13;100.00;93015.58;835608;71;32751;-80
2021/03/22 03:16:14;;;;;;;1.80;1.70;;;;;;;-0.14;100.00;93001.12;827620;71;32740;-81
2021/03/22 03:31:20;;;;;;;1.77;1.72;;;;;;;-0.13;100.00;92995.73;834332;71;32806;-79
2021/03/22 03:46:16;;;;;;;1.55;1.55;;;;;;;-0.09;100.00;92990.31;828024;71;32702;-81
2021/03/22 04:01:16;;;;;;;1.40;1.30;;;;;;;-0.04;99.69;92978.72;828582;71;31247;-83
2021/03/22 04:16:24;;;;;;;1.17;1.17;;;;;;;-0.03;99.37;92979.48;827519;71;33135;-82
2021/03/22 04:31:18;;;;;;;1.77;1.67;;;;;;;-0.05;99.72;92959.12;827726;71;32811;-82
2021/03/22 04:46:19;;;;;;;4.05;3.65;;;;;;;-0.05;100.00;92972.53;827567;71;32683;-76
2021/03/22 05:01:09;;;;;;;2.10;2.00;;;;;;;-0.02;99.65;92964.27;834557;71;30132;-78
2021/03/22 05:16:12;;;;;;;3.50;3.20;;;;;;;-0.03;100.00;92980.78;828489;71;30282;-77
2021/03/22 05:31:14;;;;;;;4.00;3.60;;;;;;;0.11;100.00;92999.84;827609;71;32622;-77
2021/03/22 05:46:20;;;;;;;5.67;4.65;;;;;;;0.09;100.00;93003.72;829341;71;29752;-79
2021/03/22 06:01:24;;;;;;;5.42;4.83;;;;;;;0.34;100.00;93017.86;828862;71;30214;-79
2021/03/22 06:16:27;;;;;;;8.40;7.60;;;;;;;0.93;100.00;93018.23;827956;71;32719;-80
2021/03/22 06:31:22;;;;;;;9.30;8.35;;;;;;;1.03;100.00;93033.69;828761;71;32871;-80
2021/03/22 06:46:14;;;;;;;12.28;9.05;;;;;;;1.06;98.84;93037.57;824805;71;33222;-78
2021/03/22 07:01:19;;;;;;;7.28;6.22;;;;;;;0.93;99.29;93031.14;828334;71;32729;-78
2021/03/22 07:16:19;;;;;;;6.83;5.55;;;;;;;0.95;98.68;93034.23;827385;71;33630;-77
2021/03/22 07:31:46;;;;;;;3.80;3.50;;;;;;;0.91;95.43;93052.58;833671;71;29696;-78
2021/03/22 07:46:19;;;;;;;2.92;2.72;;;;;;;0.68;94.75;93084.91;824739;71;30329;-78
2021/03/22 08:01:33;;;;;;;6.90;4.00;;;;;;;1.33;95.52;93081.11;834498;71;29890;-79
2021/03/22 08:16:21;;;;;;;4.83;4.35;;;;;;;2.10;92.30;93081.45;834066;71;29774;-77
2021/03/22 08:31:30;;;;;;;6.40;5.80;;;;;;;2.27;90.76;93064.27;834401;71;33833;-78
2021/03/22 08:46:28;;;;;;;3.87;3.50;;;;;;;1.27;91.11;93069.25;823591;71;29745;-77
2021/03/22 09:01:42;;;;;;;3.30;3.10;;;;;;;1.18;91.60;93077.55;833609;71;32840;-78
2021/03/22 09:16:26;;;;;;;4.90;4.40;;;;;;;1.38;90.92;93044.92;828676;71;29721;-80
2021/03/22 09:31:15;;;;;;;5.65;5.05;;;;;;;2.33;89.85;93078.71;800830;74;30410;-79
2021/03/22 09:46:27;;;;;;;5.72;5.15;;;;;;;2.97;86.97;93069.05;791326;74;32843;-78
2021/03/22 10:01:35;;;;;;;5.70;5.10;;;;;;;3.70;83.90;93049.54;834791;71;32757;-78
2021/03/22 10:16:15;;;;;;;6.10;5.25;;;;;;;4.85;81.79;93060.75;828560;71;30304;-79
2021/03/22 10:31:34;;;;;;;10.75;9.65;;;;;;;5.22;79.38;93064.23;827414;71;33339;-78
2021/03/22 10:46:35;;;;;;;6.85;5.05;;;;;;;5.24;75.11;93070.45;788597;75;33194;-77
2021/03/22 11:01:17;;;;;;;5.53;4.80;;;;;;;5.17;73.95;93066.91;834313;71;31721;-77
2021/03/22 11:16:24;;;;;;;4.47;4.05;;;;;;;5.35;73.48;93071.27;829282;71;31830;-78
2021/03/22 11:31:17;;;;;;;4.97;4.25;;;;;;;5.21;73.47;93067.88;793448;73;31887;-81
2021/03/22 11:46:19;;;;;;;3.40;3.10;;;;;;;5.15;72.86;93063.83;824383;71;31773;-77
2021/03/22 12:01:14;;;;;;;3.35;3.05;;;;;;;5.14;72.50;93066.97;834726;71;29205;-79
2021/03/22 12:16:12;;;;;;;4.85;3.83;;;;;;;4.92;74.66;93086.34;827348;71;31757;-78
2021/03/22 12:31:03;;;;;;;7.35;5.78;;;;;;;4.72;75.87;93109.01;828344;71;28745;-78
2021/03/22 12:46:03;;;;;;;8.93;8.00;;;;;;;4.40;76.67;93110.56;828174;71;29090;-78
2021/03/22 13:01:05;;;;;;;8.60;7.58;;;;;;;4.18;77.66;93123.36;828242;71;32265;-78
2021/03/22 13:16:00;;;;;;;5.15;4.70;;;;;;;4.20;77.52;93149.80;828566;71;29245;-79
2021/03/22 13:31:00;;;;;;;4.45;4.05;;;;;;;4.18;77.64;93141.52;815492;71;28842;-78
2021/03/22 13:45:59;;;;;;;6.80;4.83;;;;;;;4.26;76.54;93146.59;834017;70;30288;-79
2021/03/22 14:00:55;;;;;;;2.52;2.42;;;;;;;3.78;75.44;93159.92;833847;71;28716;-78
2021/03/22 14:15:59;;;;;;;2.55;2.35;;;;;;;3.83;75.63;93177.23;828186;71;31540;-75
2021/03/22 14:30:53;;;;;;;3.42;3.20;;;;;;;3.57;75.40;93200.88;834764;71;28691;-75
2021/03/22 14:45:58;;;;;;;5.05;2.92;;;;;;;3.65;75.50;93211.19;827419;71;31833;-73
2021/03/22 15:01:42;;;;;;;3.20;2.90;;;;;;;3.69;75.59;93228.23;827447;71;32201;-72
2021/03/22 15:16:27;;;;;;;3.60;3.30;;;;;;;3.68;74.94;93246.92;833865;71;28388;-73
2021/03/22 15:31:33;;;;;;;4.03;3.65;;;;;;;3.40;75.89;93270.00;827722;71;31731;-72
2021/03/22 15:46:30;;;;;;;5.37;4.87;;;;;;;3.34;78.03;93302.20;827288;71;31736;-73
2021/03/22 16:01:27;;;;;;;8.00;5.67;;;;;;;3.24;78.63;93318.36;818697;71;31600;-73
2021/03/22 16:16:29;;;;;;;5.72;5.03;;;;;;;3.05;77.62;93344.91;821015;71;31839;-73
2021/03/22 16:31:26;;;;;;;4.25;3.40;;;;;;;2.93;76.37;93367.78;821208;71;31890;-73
2021/03/22 16:46:24;;;;;;;4.35;3.80;;;;;;;2.79;75.25;93385.20;824238;71;31578;-72
2021/03/22 17:01:40;;;;;;;;;;;;;;;;;;;;;
2021/03/22 17:16:38;;;;;;;4.95;4.50;;;;;;;2.55;78.86;93443.81;833864;71;31717;-79
2021/03/22 17:31:26;;;;;;;2.87;2.67;;;;;;;2.54;78.18;93450.81;827154;71;32193;-82
2021/03/22 17:46:19;;;;;;;4.37;3.27;;;;;;;2.37;78.42;93470.53;829737;71;30210;-81
2021/03/22 18:01:19;;;;;;;3.83;3.40;;;;;;;2.34;78.74;93487.86;828245;71;32701;-82
2021/03/22 18:16:14;;;;;;;5.65;2.60;;;;;;;2.42;77.85;93500.03;828444;71;29661;-83
2021/03/22 18:31:25;;;;;;;2.22;2.12;;;;;;;2.50;75.99;93526.69;827920;71;32688;-81
2021/03/22 18:46:29;;;;;;;5.37;4.85;;;;;;;2.23;75.28;93506.23;834279;71;33358;-81
2021/03/22 19:31:23;;;;;;;2.42;2.22;;;;;;;2.28;76.32;93600.71;834220;71;32736;-81
2021/03/22 21:01:57;;;;;;;12.50;7.92;;;;;;;1.34;84.73;93662.75;829146;70;32815;-84
2021/03/22 21:47:04;;;;;;;;;;;;;;;;;;;;;
2021/03/22 23:16:44;;;;;;;;;;;;;;;;;;;;;
